sensor_id;sensor_type;location;lat;lon;timestamp;temperature;humidity
46378;DHT22;32083;47.360;9.650;2022-12-18T00:01:57;-3.30;99.90
46378;DHT22;32083;47.360;9.650;2022-12-18T00:04:25;-3.50;99.90
46378;DHT22;32083;47.360;9.650;2022-12-18T00:06:52;-3.50;99.90
46378;DHT22;32083;47.360;9.650;2022-12-18T00:09:19;-3.40;99.90
46378;DHT22;32083;47.360;9.650;2022-12-18T00:11:44;-3.40;99.90
46378;DHT22;32083;47.360;9.650;2022-12-18T00:14:12;-3.30;99.90
46378;DHT22;32083;47.360;9.650;2022-12-18T00:16:38;-3.30;99.90
46378;DHT22;32083;47.360;9.650;2022-12-18T00:19:05;-3.40;99.90
46378;DHT22;32083;47.360;9.650;2022-12-18T00:21:32;-3.40;99.90
46378;DHT22;32083;47.360;9.650;2022-12-18T00:23:59;-3.40;99.90
46378;DHT22;32083;47.360;9.650;2022-12-18T00:26:31;-3.50;99.90
46378;DHT22;32083;47.360;9.650;2022-12-18T00:29:03;-3.60;99.90
46378;DHT22;32083;47.360;9.650;2022-12-18T00:31:29;-3.60;99.90
46378;DHT22;32083;47.360;9.650;2022-12-18T00:33:55;-3.60;99.90
46378;DHT22;32083;47.360;9.650;2022-12-18T00:36:25;-3.50;99.90
46378;DHT22;32083;47.360;9.650;2022-12-18T00:38:53;-3.50;99.90
46378;DHT22;32083;47.360;9.650;2022-12-18T00:41:19;-3.60;99.90
46378;DHT22;32083;47.360;9.650;2022-12-18T00:44:04;-3.60;99.90
46378;DHT22;32083;47.360;9.650;2022-12-18T00:46:31;-3.60;99.90
46378;DHT22;32083;47.360;9.650;2022-12-18T00:48:57;-3.70;99.90
46378;DHT22;32083;47.360;9.650;2022-12-18T00:51:23;-3.60;99.90
46378;DHT22;32083;47.360;9.650;2022-12-18T00:53:49;-3.60;99.90
46378;DHT22;32083;47.360;9.650;2022-12-18T00:56:14;-3.60;99.90
46378;DHT22;32083;47.360;9.650;2022-12-18T00:58:40;-3.60;99.90
46378;DHT22;32083;47.360;9.650;2022-12-18T01:01:06;-3.60;99.90
46378;DHT22;32083;47.360;9.650;2022-12-18T01:03:32;-3.60;99.90
46378;DHT22;32083;47.360;9.650;2022-12-18T01:05:58;-3.60;99.90
46378;DHT22;32083;47.360;9.650;2022-12-18T01:08:24;-3.60;99.90
46378;DHT22;32083;47.360;9.650;2022-12-18T01:10:50;-3.70;99.90
46378;DHT22;32083;47.360;9.650;2022-12-18T01:13:16;-3.70;99.90
46378;DHT22;32083;47.360;9.650;2022-12-18T01:15:48;-3.80;99.90
46378;DHT22;32083;47.360;9.650;2022-12-18T01:18:14;-4.10;99.90
46378;DHT22;32083;47.360;9.650;2022-12-18T01:20:40;-4.10;99.90
46378;DHT22;32083;47.360;9.650;2022-12-18T01:23:05;-4.20;99.90
46378;DHT22;32083;47.360;9.650;2022-12-18T01:25:31;-4.20;99.90
46378;DHT22;32083;47.360;9.650;2022-12-18T01:27:57;-4.10;99.90
46378;DHT22;32083;47.360;9.650;2022-12-18T01:30:23;-4.10;99.90
46378;DHT22;32083;47.360;9.650;2022-12-18T01:32:48;-4.20;99.90
46378;DHT22;32083;47.360;9.650;2022-12-18T01:35:14;-4.20;99.90
46378;DHT22;32083;47.360;9.650;2022-12-18T01:37:40;-4.10;99.90
46378;DHT22;32083;47.360;9.650;2022-12-18T01:40:06;-4.00;99.90
46378;DHT22;32083;47.360;9.650;2022-12-18T01:42:32;-4.10;99.90
46378;DHT22;32083;47.360;9.650;2022-12-18T01:50:14;-4.20;99.90
46378;DHT22;32083;47.360;9.650;2022-12-18T01:52:42;-4.10;99.90
46378;DHT22;32083;47.360;9.650;2022-12-18T01:55:10;-4.20;99.90
46378;DHT22;32083;47.360;9.650;2022-12-18T01:57:37;-4.10;99.90
46378;DHT22;32083;47.360;9.650;2022-12-18T02:00:09;-4.10;99.90
46378;DHT22;32083;47.360;9.650;2022-12-18T02:02:35;-4.00;99.90
46378;DHT22;32083;47.360;9.650;2022-12-18T02:05:02;-4.00;99.90
46378;DHT22;32083;47.360;9.650;2022-12-18T02:13:06;-4.10;99.90
46378;DHT22;32083;47.360;9.650;2022-12-18T02:18:25;-4.00;99.90
46378;DHT22;32083;47.360;9.650;2022-12-18T02:23:52;-3.80;99.90
46378;DHT22;32083;47.360;9.650;2022-12-18T02:26:40;-3.70;99.90
46378;DHT22;32083;47.360;9.650;2022-12-18T02:29:13;-3.60;99.90
46378;DHT22;32083;47.360;9.650;2022-12-18T02:31:51;-3.50;99.90
46378;DHT22;32083;47.360;9.650;2022-12-18T02:34:19;-3.50;99.90
46378;DHT22;32083;47.360;9.650;2022-12-18T02:36:48;-3.50;99.90
46378;DHT22;32083;47.360;9.650;2022-12-18T02:39:15;-3.50;99.90
46378;DHT22;32083;47.360;9.650;2022-12-18T02:41:43;-3.50;99.90
46378;DHT22;32083;47.360;9.650;2022-12-18T02:44:11;-3.50;99.90
46378;DHT22;32083;47.360;9.650;2022-12-18T02:46:43;-3.50;99.90
46378;DHT22;32083;47.360;9.650;2022-12-18T02:49:28;-3.50;99.90
46378;DHT22;32083;47.360;9.650;2022-12-18T02:52:12;-3.60;99.90
46378;DHT22;32083;47.360;9.650;2022-12-18T03:00:37;-3.60;99.90
46378;DHT22;32083;47.360;9.650;2022-12-18T03:03:18;-3.50;99.90
46378;DHT22;32083;47.360;9.650;2022-12-18T03:05:55;-3.40;99.90
46378;DHT22;32083;47.360;9.650;2022-12-18T03:08:26;-3.30;99.90
46378;DHT22;32083;47.360;9.650;2022-12-18T03:11:00;-3.30;99.90
46378;DHT22;32083;47.360;9.650;2022-12-18T03:13:39;-3.30;99.90
46378;DHT22;32083;47.360;9.650;2022-12-18T03:16:11;-3.20;99.90
46378;DHT22;32083;47.360;9.650;2022-12-18T03:18:53;-3.20;99.90
46378;DHT22;32083;47.360;9.650;2022-12-18T03:21:23;-3.10;99.90
46378;DHT22;32083;47.360;9.650;2022-12-18T03:23:52;-3.10;99.90
46378;DHT22;32083;47.360;9.650;2022-12-18T03:26:22;-3.10;99.90
46378;DHT22;32083;47.360;9.650;2022-12-18T03:28:53;-3.10;99.90
46378;DHT22;32083;47.360;9.650;2022-12-18T03:31:21;-3.20;99.90
46378;DHT22;32083;47.360;9.650;2022-12-18T03:33:55;-3.20;99.90
46378;DHT22;32083;47.360;9.650;2022-12-18T03:36:23;-3.10;99.90
46378;DHT22;32083;47.360;9.650;2022-12-18T03:38:49;-3.00;99.90
46378;DHT22;32083;47.360;9.650;2022-12-18T03:41:35;-3.00;99.90
46378;DHT22;32083;47.360;9.650;2022-12-18T03:44:13;-2.90;99.90
46378;DHT22;32083;47.360;9.650;2022-12-18T03:46:58;-2.80;99.90
46378;DHT22;32083;47.360;9.650;2022-12-18T03:54:39;-2.90;99.90
46378;DHT22;32083;47.360;9.650;2022-12-18T03:57:21;-3.00;99.90
46378;DHT22;32083;47.360;9.650;2022-12-18T03:59:50;-3.10;99.90
46378;DHT22;32083;47.360;9.650;2022-12-18T04:02:17;-3.20;99.90
46378;DHT22;32083;47.360;9.650;2022-12-18T04:04:43;-3.20;99.90
46378;DHT22;32083;47.360;9.650;2022-12-18T04:07:10;-3.20;99.90
46378;DHT22;32083;47.360;9.650;2022-12-18T04:09:39;-3.20;99.90
46378;DHT22;32083;47.360;9.650;2022-12-18T04:12:08;-3.10;99.90
46378;DHT22;32083;47.360;9.650;2022-12-18T04:14:34;-3.10;99.90
46378;DHT22;32083;47.360;9.650;2022-12-18T04:17:01;-3.00;99.90
46378;DHT22;32083;47.360;9.650;2022-12-18T04:19:28;-2.90;99.90
46378;DHT22;32083;47.360;9.650;2022-12-18T04:21:53;-2.90;99.90
46378;DHT22;32083;47.360;9.650;2022-12-18T04:24:19;-2.90;99.90
46378;DHT22;32083;47.360;9.650;2022-12-18T04:26:45;-3.00;99.90
46378;DHT22;32083;47.360;9.650;2022-12-18T04:29:10;-3.10;99.90
46378;DHT22;32083;47.360;9.650;2022-12-18T04:31:36;-3.10;99.90
46378;DHT22;32083;47.360;9.650;2022-12-18T04:34:02;-3.10;99.90
46378;DHT22;32083;47.360;9.650;2022-12-18T04:36:28;-3.10;99.90
46378;DHT22;32083;47.360;9.650;2022-12-18T04:38:54;-3.20;99.90
46378;DHT22;32083;47.360;9.650;2022-12-18T04:41:19;-3.20;99.90
46378;DHT22;32083;47.360;9.650;2022-12-18T04:43:45;-3.20;99.90
46378;DHT22;32083;47.360;9.650;2022-12-18T04:46:11;-3.30;99.90
46378;DHT22;32083;47.360;9.650;2022-12-18T04:48:37;-3.20;99.90
46378;DHT22;32083;47.360;9.650;2022-12-18T04:51:04;-3.30;99.90
46378;DHT22;32083;47.360;9.650;2022-12-18T04:53:31;-3.30;99.90
46378;DHT22;32083;47.360;9.650;2022-12-18T04:56:08;-3.20;99.90
46378;DHT22;32083;47.360;9.650;2022-12-18T04:58:36;-3.10;99.90
46378;DHT22;32083;47.360;9.650;2022-12-18T05:01:02;-3.00;99.90
46378;DHT22;32083;47.360;9.650;2022-12-18T05:03:29;-3.10;99.90
46378;DHT22;32083;47.360;9.650;2022-12-18T05:05:54;-3.00;99.90
46378;DHT22;32083;47.360;9.650;2022-12-18T05:08:20;-3.00;99.90
46378;DHT22;32083;47.360;9.650;2022-12-18T05:10:46;-3.00;99.90
46378;DHT22;32083;47.360;9.650;2022-12-18T05:13:12;-3.10;99.90
46378;DHT22;32083;47.360;9.650;2022-12-18T05:15:37;-3.20;99.90
46378;DHT22;32083;47.360;9.650;2022-12-18T05:18:04;-3.10;99.90
46378;DHT22;32083;47.360;9.650;2022-12-18T05:20:30;-3.10;99.90
46378;DHT22;32083;47.360;9.650;2022-12-18T05:22:56;-3.10;99.90
46378;DHT22;32083;47.360;9.650;2022-12-18T05:25:22;-3.20;99.90
46378;DHT22;32083;47.360;9.650;2022-12-18T05:27:48;-3.20;99.90
46378;DHT22;32083;47.360;9.650;2022-12-18T05:30:15;-3.20;99.90
46378;DHT22;32083;47.360;9.650;2022-12-18T05:32:41;-3.20;99.90
46378;DHT22;32083;47.360;9.650;2022-12-18T05:35:08;-3.10;99.90
46378;DHT22;32083;47.360;9.650;2022-12-18T05:37:34;-3.10;99.90
46378;DHT22;32083;47.360;9.650;2022-12-18T05:40:01;-3.10;99.90
46378;DHT22;32083;47.360;9.650;2022-12-18T05:42:26;-3.00;99.90
46378;DHT22;32083;47.360;9.650;2022-12-18T05:44:52;-3.00;99.90
46378;DHT22;32083;47.360;9.650;2022-12-18T05:47:18;-3.00;99.90
46378;DHT22;32083;47.360;9.650;2022-12-18T05:49:43;-2.90;99.90
46378;DHT22;32083;47.360;9.650;2022-12-18T05:52:09;-2.90;99.90
46378;DHT22;32083;47.360;9.650;2022-12-18T05:54:35;-2.90;99.90
46378;DHT22;32083;47.360;9.650;2022-12-18T05:57:00;-2.80;99.90
46378;DHT22;32083;47.360;9.650;2022-12-18T05:59:26;-2.90;99.90
46378;DHT22;32083;47.360;9.650;2022-12-18T06:01:52;-2.80;99.90
46378;DHT22;32083;47.360;9.650;2022-12-18T06:04:17;-2.80;99.90
46378;DHT22;32083;47.360;9.650;2022-12-18T06:06:43;-2.80;99.90
46378;DHT22;32083;47.360;9.650;2022-12-18T06:09:09;-2.90;99.90
46378;DHT22;32083;47.360;9.650;2022-12-18T06:11:38;-2.90;99.90
46378;DHT22;32083;47.360;9.650;2022-12-18T06:14:05;-2.90;99.90
46378;DHT22;32083;47.360;9.650;2022-12-18T06:16:31;-2.90;99.90
46378;DHT22;32083;47.360;9.650;2022-12-18T06:18:58;-3.00;99.90
46378;DHT22;32083;47.360;9.650;2022-12-18T06:21:24;-3.00;99.90
46378;DHT22;32083;47.360;9.650;2022-12-18T06:23:49;-3.00;99.90
46378;DHT22;32083;47.360;9.650;2022-12-18T06:26:15;-3.10;99.90
46378;DHT22;32083;47.360;9.650;2022-12-18T06:28:41;-3.10;99.90
46378;DHT22;32083;47.360;9.650;2022-12-18T06:31:08;-3.00;99.90
46378;DHT22;32083;47.360;9.650;2022-12-18T06:33:35;-3.20;99.90
46378;DHT22;32083;47.360;9.650;2022-12-18T06:36:05;-3.20;99.90
46378;DHT22;32083;47.360;9.650;2022-12-18T06:38:33;-3.20;99.90
46378;DHT22;32083;47.360;9.650;2022-12-18T06:40:59;-3.10;99.90
46378;DHT22;32083;47.360;9.650;2022-12-18T06:43:26;-3.10;99.90
46378;DHT22;32083;47.360;9.650;2022-12-18T06:45:59;-3.10;99.90
46378;DHT22;32083;47.360;9.650;2022-12-18T06:48:25;-3.10;99.90
46378;DHT22;32083;47.360;9.650;2022-12-18T06:50:51;-3.10;99.90
46378;DHT22;32083;47.360;9.650;2022-12-18T06:53:16;-3.00;99.90
46378;DHT22;32083;47.360;9.650;2022-12-18T06:55:42;-3.00;99.90
46378;DHT22;32083;47.360;9.650;2022-12-18T06:58:08;-3.00;99.90
46378;DHT22;32083;47.360;9.650;2022-12-18T07:00:34;-2.90;99.90
46378;DHT22;32083;47.360;9.650;2022-12-18T07:02:59;-2.90;99.90
46378;DHT22;32083;47.360;9.650;2022-12-18T07:05:25;-2.90;99.90
46378;DHT22;32083;47.360;9.650;2022-12-18T07:07:51;-3.00;99.90
46378;DHT22;32083;47.360;9.650;2022-12-18T07:10:16;-3.00;99.90
46378;DHT22;32083;47.360;9.650;2022-12-18T07:12:42;-3.00;99.90
46378;DHT22;32083;47.360;9.650;2022-12-18T07:15:08;-3.10;99.90
46378;DHT22;32083;47.360;9.650;2022-12-18T07:17:34;-3.00;99.90
46378;DHT22;32083;47.360;9.650;2022-12-18T07:20:00;-3.10;99.90
46378;DHT22;32083;47.360;9.650;2022-12-18T07:22:26;-3.10;99.90
46378;DHT22;32083;47.360;9.650;2022-12-18T07:24:51;-3.10;99.90
46378;DHT22;32083;47.360;9.650;2022-12-18T07:27:17;-3.10;99.90
46378;DHT22;32083;47.360;9.650;2022-12-18T07:29:43;-3.20;99.90
46378;DHT22;32083;47.360;9.650;2022-12-18T07:32:08;-3.30;99.90
46378;DHT22;32083;47.360;9.650;2022-12-18T07:34:34;-3.20;99.90
46378;DHT22;32083;47.360;9.650;2022-12-18T07:37:00;-3.30;99.90
46378;DHT22;32083;47.360;9.650;2022-12-18T07:39:25;-3.10;99.90
46378;DHT22;32083;47.360;9.650;2022-12-18T07:41:51;-3.20;99.90
46378;DHT22;32083;47.360;9.650;2022-12-18T07:44:36;-3.10;99.90
46378;DHT22;32083;47.360;9.650;2022-12-18T07:47:02;-3.10;99.90
46378;DHT22;32083;47.360;9.650;2022-12-18T07:49:29;-3.10;99.90
46378;DHT22;32083;47.360;9.650;2022-12-18T07:51:56;-3.10;99.90
46378;DHT22;32083;47.360;9.650;2022-12-18T07:54:24;-3.10;99.90
46378;DHT22;32083;47.360;9.650;2022-12-18T07:56:51;-3.00;99.90
46378;DHT22;32083;47.360;9.650;2022-12-18T07:59:19;-3.00;99.90
46378;DHT22;32083;47.360;9.650;2022-12-18T08:01:48;-2.90;99.90
46378;DHT22;32083;47.360;9.650;2022-12-18T08:04:16;-2.90;99.90
46378;DHT22;32083;47.360;9.650;2022-12-18T08:06:47;-3.00;99.90
46378;DHT22;32083;47.360;9.650;2022-12-18T08:09:14;-3.10;99.90
46378;DHT22;32083;47.360;9.650;2022-12-18T08:11:42;-3.10;99.90
46378;DHT22;32083;47.360;9.650;2022-12-18T08:14:08;-3.10;99.90
46378;DHT22;32083;47.360;9.650;2022-12-18T08:16:35;-3.00;99.90
46378;DHT22;32083;47.360;9.650;2022-12-18T08:19:06;-3.10;99.90
46378;DHT22;32083;47.360;9.650;2022-12-18T08:21:42;-3.20;99.90
46378;DHT22;32083;47.360;9.650;2022-12-18T08:24:10;-3.20;99.90
46378;DHT22;32083;47.360;9.650;2022-12-18T08:26:39;-3.10;99.90
46378;DHT22;32083;47.360;9.650;2022-12-18T08:29:07;-3.20;99.90
46378;DHT22;32083;47.360;9.650;2022-12-18T08:31:36;-3.20;99.90
46378;DHT22;32083;47.360;9.650;2022-12-18T08:37:21;-3.10;99.90
46378;DHT22;32083;47.360;9.650;2022-12-18T08:39:49;-3.10;99.90
46378;DHT22;32083;47.360;9.650;2022-12-18T08:42:14;-3.10;99.90
46378;DHT22;32083;47.360;9.650;2022-12-18T08:44:59;-3.00;99.90
46378;DHT22;32083;47.360;9.650;2022-12-18T08:47:24;-2.90;99.90
46378;DHT22;32083;47.360;9.650;2022-12-18T08:49:51;-2.80;99.90
46378;DHT22;32083;47.360;9.650;2022-12-18T08:52:33;-2.70;99.90
46378;DHT22;32083;47.360;9.650;2022-12-18T08:55:03;-2.60;99.90
46378;DHT22;32083;47.360;9.650;2022-12-18T08:57:34;-2.70;99.90
46378;DHT22;32083;47.360;9.650;2022-12-18T09:00:43;-2.70;99.90
46378;DHT22;32083;47.360;9.650;2022-12-18T09:06:20;-2.60;99.90
46378;DHT22;32083;47.360;9.650;2022-12-18T09:08:46;-2.50;99.90
46378;DHT22;32083;47.360;9.650;2022-12-18T09:11:24;-2.60;99.90
46378;DHT22;32083;47.360;9.650;2022-12-18T09:13:52;-2.60;99.90
46378;DHT22;32083;47.360;9.650;2022-12-18T09:16:20;-2.70;99.90
46378;DHT22;32083;47.360;9.650;2022-12-18T09:18:47;-2.80;99.90
46378;DHT22;32083;47.360;9.650;2022-12-18T09:21:18;-2.80;99.90
46378;DHT22;32083;47.360;9.650;2022-12-18T09:23:50;-2.70;99.90
46378;DHT22;32083;47.360;9.650;2022-12-18T09:26:16;-2.90;99.90
46378;DHT22;32083;47.360;9.650;2022-12-18T09:28:42;-2.90;99.90
46378;DHT22;32083;47.360;9.650;2022-12-18T09:31:11;-2.80;99.90
46378;DHT22;32083;47.360;9.650;2022-12-18T09:33:37;-2.70;99.90
46378;DHT22;32083;47.360;9.650;2022-12-18T09:36:05;-2.60;99.90
46378;DHT22;32083;47.360;9.650;2022-12-18T09:38:32;-2.50;99.90
46378;DHT22;32083;47.360;9.650;2022-12-18T09:41:15;-2.60;99.90
46378;DHT22;32083;47.360;9.650;2022-12-18T09:43:51;-2.60;99.90
46378;DHT22;32083;47.360;9.650;2022-12-18T09:46:34;-2.60;99.90
46378;DHT22;32083;47.360;9.650;2022-12-18T09:49:05;-2.60;99.90
46378;DHT22;32083;47.360;9.650;2022-12-18T09:51:39;-2.60;99.90
46378;DHT22;32083;47.360;9.650;2022-12-18T09:54:13;-2.60;99.90
46378;DHT22;32083;47.360;9.650;2022-12-18T09:56:42;-2.60;99.90
46378;DHT22;32083;47.360;9.650;2022-12-18T09:59:23;-2.50;99.90
46378;DHT22;32083;47.360;9.650;2022-12-18T10:01:50;-2.70;99.90
46378;DHT22;32083;47.360;9.650;2022-12-18T10:04:16;-2.60;99.90
46378;DHT22;32083;47.360;9.650;2022-12-18T10:06:53;-2.50;99.90
46378;DHT22;32083;47.360;9.650;2022-12-18T10:09:34;-2.40;99.90
46378;DHT22;32083;47.360;9.650;2022-12-18T10:15:47;-2.40;99.90
46378;DHT22;32083;47.360;9.650;2022-12-18T10:18:44;-2.40;99.90
46378;DHT22;32083;47.360;9.650;2022-12-18T10:22:01;-2.40;99.90
46378;DHT22;32083;47.360;9.650;2022-12-18T10:24:25;-2.50;99.90
46378;DHT22;32083;47.360;9.650;2022-12-18T10:26:54;-2.30;99.90
46378;DHT22;32083;47.360;9.650;2022-12-18T10:29:21;-2.20;99.90
46378;DHT22;32083;47.360;9.650;2022-12-18T10:31:48;-2.30;99.90
46378;DHT22;32083;47.360;9.650;2022-12-18T10:34:17;-2.20;99.90
46378;DHT22;32083;47.360;9.650;2022-12-18T10:36:43;-2.20;99.90
46378;DHT22;32083;47.360;9.650;2022-12-18T10:39:16;-2.30;99.90
46378;DHT22;32083;47.360;9.650;2022-12-18T10:41:42;-2.20;99.90
46378;DHT22;32083;47.360;9.650;2022-12-18T10:44:15;-2.20;99.90
46378;DHT22;32083;47.360;9.650;2022-12-18T10:46:42;-2.20;99.90
46378;DHT22;32083;47.360;9.650;2022-12-18T10:49:37;-2.30;99.90
46378;DHT22;32083;47.360;9.650;2022-12-18T10:54:54;-2.30;99.90
46378;DHT22;32083;47.360;9.650;2022-12-18T10:59:56;-2.20;99.90
46378;DHT22;32083;47.360;9.650;2022-12-18T11:02:39;-2.20;99.90
46378;DHT22;32083;47.360;9.650;2022-12-18T11:07:53;-2.00;99.90
46378;DHT22;32083;47.360;9.650;2022-12-18T11:10:35;-2.20;99.90
46378;DHT22;32083;47.360;9.650;2022-12-18T11:13:16;-2.20;99.90
46378;DHT22;32083;47.360;9.650;2022-12-18T11:15:43;-2.20;99.90
46378;DHT22;32083;47.360;9.650;2022-12-18T11:18:25;-2.20;99.90
46378;DHT22;32083;47.360;9.650;2022-12-18T11:20:57;-2.20;99.90
46378;DHT22;32083;47.360;9.650;2022-12-18T11:23:25;-2.30;99.90
46378;DHT22;32083;47.360;9.650;2022-12-18T11:25:57;-2.40;99.90
46378;DHT22;32083;47.360;9.650;2022-12-18T11:28:44;-2.30;99.90
46378;DHT22;32083;47.360;9.650;2022-12-18T11:31:24;-2.20;99.90
46378;DHT22;32083;47.360;9.650;2022-12-18T11:36:36;-2.10;99.90
46378;DHT22;32083;47.360;9.650;2022-12-18T11:39:11;-2.10;99.90
46378;DHT22;32083;47.360;9.650;2022-12-18T11:41:52;-2.00;99.90
46378;DHT22;32083;47.360;9.650;2022-12-18T11:44:59;-2.10;99.90
46378;DHT22;32083;47.360;9.650;2022-12-18T11:49:53;-2.10;99.90
46378;DHT22;32083;47.360;9.650;2022-12-18T11:52:25;-2.10;99.90
46378;DHT22;32083;47.360;9.650;2022-12-18T11:54:59;-2.20;99.90
46378;DHT22;32083;47.360;9.650;2022-12-18T12:08:13;-1.80;99.90
46378;DHT22;32083;47.360;9.650;2022-12-18T12:16:35;-1.40;99.90
46378;DHT22;32083;47.360;9.650;2022-12-18T12:21:42;-1.60;99.90
46378;DHT22;32083;47.360;9.650;2022-12-18T12:40:26;-1.50;99.90
46378;DHT22;32083;47.360;9.650;2022-12-18T12:43:00;-1.40;99.90
46378;DHT22;32083;47.360;9.650;2022-12-18T12:46:04;-1.50;99.90
46378;DHT22;32083;47.360;9.650;2022-12-18T12:48:35;-1.40;99.90
46378;DHT22;32083;47.360;9.650;2022-12-18T12:53:39;-1.30;99.90
46378;DHT22;32083;47.360;9.650;2022-12-18T12:56:08;-1.30;99.90
46378;DHT22;32083;47.360;9.650;2022-12-18T13:01:52;-1.20;99.90
46378;DHT22;32083;47.360;9.650;2022-12-18T13:15:40;-1.20;99.90
46378;DHT22;32083;47.360;9.650;2022-12-18T13:20:46;-1.20;99.90
46378;DHT22;32083;47.360;9.650;2022-12-18T13:23:29;-1.20;99.90
46378;DHT22;32083;47.360;9.650;2022-12-18T13:36:39;-1.00;99.90
46378;DHT22;32083;47.360;9.650;2022-12-18T13:41:45;-1.00;99.90
46378;DHT22;32083;47.360;9.650;2022-12-18T13:44:33;-1.20;99.90
46378;DHT22;32083;47.360;9.650;2022-12-18T13:47:01;-1.20;99.90
46378;DHT22;32083;47.360;9.650;2022-12-18T13:49:40;-1.20;99.90
46378;DHT22;32083;47.360;9.650;2022-12-18T13:52:22;-1.20;99.90
46378;DHT22;32083;47.360;9.650;2022-12-18T13:54:56;-1.20;99.90
46378;DHT22;32083;47.360;9.650;2022-12-18T13:59:53;-1.10;99.90
46378;DHT22;32083;47.360;9.650;2022-12-18T14:02:25;-1.00;99.90
46378;DHT22;32083;47.360;9.650;2022-12-18T14:04:53;-0.90;99.90
46378;DHT22;32083;47.360;9.650;2022-12-18T14:07:22;-0.90;99.90
46378;DHT22;32083;47.360;9.650;2022-12-18T14:09:52;-1.00;99.90
46378;DHT22;32083;47.360;9.650;2022-12-18T14:12:25;-0.90;99.90
46378;DHT22;32083;47.360;9.650;2022-12-18T14:20:33;-0.90;99.90
46378;DHT22;32083;47.360;9.650;2022-12-18T14:23:00;-1.00;99.90
46378;DHT22;32083;47.360;9.650;2022-12-18T14:25:30;-1.00;99.90
46378;DHT22;32083;47.360;9.650;2022-12-18T14:28:12;-1.00;99.90
46378;DHT22;32083;47.360;9.650;2022-12-18T14:30:41;-1.20;99.90
46378;DHT22;32083;47.360;9.650;2022-12-18T14:33:12;-1.20;99.90
46378;DHT22;32083;47.360;9.650;2022-12-18T14:35:51;-1.20;99.90
46378;DHT22;32083;47.360;9.650;2022-12-18T14:38:38;-1.10;99.90
46378;DHT22;32083;47.360;9.650;2022-12-18T14:43:34;-1.20;99.90
46378;DHT22;32083;47.360;9.650;2022-12-18T14:46:01;-1.10;99.90
46378;DHT22;32083;47.360;9.650;2022-12-18T14:48:41;-1.30;99.90
46378;DHT22;32083;47.360;9.650;2022-12-18T14:51:17;-1.30;99.90
46378;DHT22;32083;47.360;9.650;2022-12-18T14:53:47;-1.30;99.90
46378;DHT22;32083;47.360;9.650;2022-12-18T14:56:43;-1.30;99.90
46378;DHT22;32083;47.360;9.650;2022-12-18T14:59:15;-1.20;99.90
46378;DHT22;32083;47.360;9.650;2022-12-18T15:01:48;-1.20;99.90
46378;DHT22;32083;47.360;9.650;2022-12-18T15:04:31;-1.20;99.90
46378;DHT22;32083;47.360;9.650;2022-12-18T15:07:22;-1.20;99.90
46378;DHT22;32083;47.360;9.650;2022-12-18T15:12:42;-1.20;99.90
46378;DHT22;32083;47.360;9.650;2022-12-18T15:20:49;-1.30;99.90
46378;DHT22;32083;47.360;9.650;2022-12-18T15:23:29;-1.30;99.90
46378;DHT22;32083;47.360;9.650;2022-12-18T15:26:03;-1.20;99.90
46378;DHT22;32083;47.360;9.650;2022-12-18T15:36:24;-1.00;99.90
46378;DHT22;32083;47.360;9.650;2022-12-18T15:38:51;-1.00;99.90
46378;DHT22;32083;47.360;9.650;2022-12-18T15:41:21;-1.00;99.90
46378;DHT22;32083;47.360;9.650;2022-12-18T15:43:52;-1.00;99.90
46378;DHT22;32083;47.360;9.650;2022-12-18T15:46:20;-1.00;99.90
46378;DHT22;32083;47.360;9.650;2022-12-18T15:48:49;-1.00;99.90
46378;DHT22;32083;47.360;9.650;2022-12-18T15:51:52;-1.00;99.90
46378;DHT22;32083;47.360;9.650;2022-12-18T15:54:13;-1.00;99.90
46378;DHT22;32083;47.360;9.650;2022-12-18T15:56:41;-1.00;99.90
46378;DHT22;32083;47.360;9.650;2022-12-18T15:59:26;-1.00;99.90
46378;DHT22;32083;47.360;9.650;2022-12-18T16:01:52;-1.00;99.90
46378;DHT22;32083;47.360;9.650;2022-12-18T16:04:20;-0.90;99.90
46378;DHT22;32083;47.360;9.650;2022-12-18T16:06:47;-0.90;99.90
46378;DHT22;32083;47.360;9.650;2022-12-18T16:09:13;-0.90;99.90
46378;DHT22;32083;47.360;9.650;2022-12-18T16:11:42;-0.90;99.90
46378;DHT22;32083;47.360;9.650;2022-12-18T16:14:23;-0.90;99.90
46378;DHT22;32083;47.360;9.650;2022-12-18T16:16:58;-0.90;99.90
46378;DHT22;32083;47.360;9.650;2022-12-18T16:19:25;-0.90;99.90
46378;DHT22;32083;47.360;9.650;2022-12-18T16:21:52;-0.90;99.90
46378;DHT22;32083;47.360;9.650;2022-12-18T16:24:25;-1.00;99.90
46378;DHT22;32083;47.360;9.650;2022-12-18T16:26:51;-1.00;99.90
46378;DHT22;32083;47.360;9.650;2022-12-18T16:29:22;-1.00;99.90
46378;DHT22;32083;47.360;9.650;2022-12-18T16:31:56;-1.00;99.90
46378;DHT22;32083;47.360;9.650;2022-12-18T16:34:30;-1.00;99.90
46378;DHT22;32083;47.360;9.650;2022-12-18T16:36:58;-1.00;99.90
46378;DHT22;32083;47.360;9.650;2022-12-18T16:39:25;-1.00;99.90
46378;DHT22;32083;47.360;9.650;2022-12-18T16:41:52;-0.90;99.90
46378;DHT22;32083;47.360;9.650;2022-12-18T16:44:18;-0.90;99.90
46378;DHT22;32083;47.360;9.650;2022-12-18T16:46:44;-1.00;99.90
46378;DHT22;32083;47.360;9.650;2022-12-18T16:49:16;-1.00;99.90
46378;DHT22;32083;47.360;9.650;2022-12-18T16:51:43;-1.00;99.90
46378;DHT22;32083;47.360;9.650;2022-12-18T16:54:09;-1.10;99.90
46378;DHT22;32083;47.360;9.650;2022-12-18T16:56:35;-1.00;99.90
46378;DHT22;32083;47.360;9.650;2022-12-18T16:59:02;-1.00;99.90
46378;DHT22;32083;47.360;9.650;2022-12-18T17:01:29;-1.00;99.90
46378;DHT22;32083;47.360;9.650;2022-12-18T17:03:58;-1.00;99.90
46378;DHT22;32083;47.360;9.650;2022-12-18T17:06:26;-1.00;99.90
46378;DHT22;32083;47.360;9.650;2022-12-18T17:08:56;-1.00;99.90
46378;DHT22;32083;47.360;9.650;2022-12-18T17:11:24;-1.10;99.90
46378;DHT22;32083;47.360;9.650;2022-12-18T17:13:49;-1.10;99.90
46378;DHT22;32083;47.360;9.650;2022-12-18T17:16:15;-1.10;99.90
46378;DHT22;32083;47.360;9.650;2022-12-18T17:18:42;-1.10;99.90
46378;DHT22;32083;47.360;9.650;2022-12-18T17:21:09;-1.10;99.90
46378;DHT22;32083;47.360;9.650;2022-12-18T17:23:35;-1.10;99.90
46378;DHT22;32083;47.360;9.650;2022-12-18T17:26:02;-1.10;99.90
46378;DHT22;32083;47.360;9.650;2022-12-18T17:28:29;-1.10;99.90
46378;DHT22;32083;47.360;9.650;2022-12-18T17:30:56;-1.20;99.90
46378;DHT22;32083;47.360;9.650;2022-12-18T17:33:22;-1.20;99.90
46378;DHT22;32083;47.360;9.650;2022-12-18T17:35:48;-1.20;99.90
46378;DHT22;32083;47.360;9.650;2022-12-18T17:38:15;-1.10;99.90
46378;DHT22;32083;47.360;9.650;2022-12-18T17:40:41;-1.10;99.90
46378;DHT22;32083;47.360;9.650;2022-12-18T17:43:08;-1.10;99.90
46378;DHT22;32083;47.360;9.650;2022-12-18T17:45:35;-1.10;99.90
46378;DHT22;32083;47.360;9.650;2022-12-18T17:48:02;-1.10;99.90
46378;DHT22;32083;47.360;9.650;2022-12-18T17:50:28;-1.20;99.90
46378;DHT22;32083;47.360;9.650;2022-12-18T17:52:57;-1.20;99.90
46378;DHT22;32083;47.360;9.650;2022-12-18T17:55:23;-1.40;99.90
46378;DHT22;32083;47.360;9.650;2022-12-18T17:57:49;-1.50;99.90
46378;DHT22;32083;47.360;9.650;2022-12-18T18:00:15;-1.50;99.90
46378;DHT22;32083;47.360;9.650;2022-12-18T18:02:41;-1.40;99.90
46378;DHT22;32083;47.360;9.650;2022-12-18T18:05:07;-1.30;99.90
46378;DHT22;32083;47.360;9.650;2022-12-18T18:07:33;-1.30;99.90
46378;DHT22;32083;47.360;9.650;2022-12-18T18:09:58;-1.30;99.90
46378;DHT22;32083;47.360;9.650;2022-12-18T18:12:24;-1.30;99.90
46378;DHT22;32083;47.360;9.650;2022-12-18T18:15:09;-1.30;99.90